Time;durP1;ratioP1;P1;durP2;ratioP2;P2;SDS_P1;SDS_P2;PMS_P1;PMS_P2;Temp;Humidity;BMP_temperature;BMP_pressure;BME280_temperature;BME280_humidity;BME280_pressure;Samples;Min_cycle;Max_cycle;Signal;HPM_P1;HPM_P2
2023/09/18 00:00:21;;;;;;;167.77;9.77;;;;;;;23.33;58.54;99204.66;7284537;19;130810;-38
2023/09/18 00:02:47;;;;;;;151.37;9.00;;;;;;;23.31;59.23;99203.16;7283808;19;131817;-40
2023/09/18 00:05:15;;;;;;;149.40;8.87;;;;;;;23.33;59.58;99202.03;7287371;19;132424;-37
2023/09/18 00:07:44;;;;;;;180.35;9.93;;;;;;;23.35;59.35;99207.09;7286639;19;130730;-38
2023/09/18 00:10:11;;;;;;;115.97;7.15;;;;;;;23.32;58.68;99208.22;7285729;19;131100;-38
2023/09/18 00:12:36;;;;;;;132.55;8.13;;;;;;;23.35;58.27;99196.63;7286383;19;130035;-36
2023/09/18 00:15:02;;;;;;;159.70;9.43;;;;;;;23.35;58.88;99189.56;7287034;19;130458;-35
2023/09/18 00:17:28;;;;;;;205.13;11.17;;;;;;;23.35;59.43;99192.19;7284696;19;132103;-38
2023/09/18 00:19:53;;;;;;;182.77;10.10;;;;;;;23.23;58.34;99173.28;7284141;19;129349;-36
2023/09/18 00:22:19;;;;;;;155.43;9.13;;;;;;;23.34;58.87;99189.72;7286446;19;130426;-36
2023/09/18 00:24:45;;;;;;;157.10;9.30;;;;;;;23.34;58.48;99190.53;7285494;19;130696;-35
2023/09/18 00:27:11;;;;;;;219.63;11.93;;;;;;;23.37;58.76;99184.16;7283423;19;131048;-38
2023/09/18 00:29:36;;;;;;;185.00;10.50;;;;;;;23.38;58.74;99181.38;7282741;19;131239;-36
2023/09/18 00:32:02;;;;;;;166.63;9.83;;;;;;;23.37;58.70;99181.53;7283650;19;131425;-37
2023/09/18 00:34:28;;;;;;;134.27;8.47;;;;;;;23.35;59.28;99184.31;7286088;19;130636;-37
2023/09/18 00:36:54;;;;;;;211.20;11.32;;;;;;;23.33;58.84;99178.41;7283720;19;131548;-37
2023/09/18 00:39:19;;;;;;;169.80;9.97;;;;;;;23.33;59.38;99177.59;7286548;19;129664;-36
2023/09/18 00:41:49;;;;;;;171.13;10.33;;;;;;;23.32;59.04;99176.75;7282902;19;130042;-36
2023/09/18 00:44:14;;;;;;;158.20;9.25;;;;;;;23.35;58.44;99175.63;7285399;19;131099;-35
2023/09/18 00:46:39;;;;;;;207.60;11.70;;;;;;;23.34;58.74;99169.56;7282761;19;130122;-35
2023/09/18 00:49:05;;;;;;;153.15;8.95;;;;;;;23.22;59.02;99149.84;7284153;19;130743;-36
2023/09/18 00:51:31;;;;;;;137.53;8.37;;;;;;;23.33;59.08;99167.91;7283342;19;131606;-39
2023/09/18 00:53:56;;;;;;;193.70;11.03;;;;;;;23.36;58.63;99161.50;7284115;19;131981;-38
2023/09/18 00:56:21;;;;;;;242.00;13.47;;;;;;;23.37;58.11;99157.94;7281619;19;129333;-36
2023/09/18 00:58:47;;;;;;;160.53;9.43;;;;;;;23.25;58.56;99154.75;7285299;19;130421;-39
2023/09/18 01:01:14;;;;;;;140.10;8.93;;;;;;;23.36;58.98;99161.50;7284195;19;129441;-39
2023/09/18 01:03:39;;;;;;;201.25;11.32;;;;;;;23.27;58.26;99137.06;7286500;19;130910;-40
2023/09/18 01:06:05;;;;;;;186.57;10.73;;;;;;;23.37;59.11;99152.69;7283151;19;129450;-40
2023/09/18 01:08:30;;;;;;;182.83;10.53;;;;;;;23.36;59.58;99145.78;7287834;19;131543;-39
2023/09/18 01:11:27;;;;;;;195.13;11.27;;;;;;;23.36;60.47;99145.78;7283206;19;129862;-39
2023/09/18 01:14:02;;;;;;;200.32;11.18;;;;;;;23.37;60.11;99143.00;7285555;19;131986;-35
2023/09/18 01:16:36;;;;;;;174.73;10.18;;;;;;;23.22;59.84;99121.78;7289016;19;130526;-36
2023/09/18 01:19:03;;;;;;;191.32;11.00;;;;;;;23.34;58.99;99129.41;7289897;19;129162;-36
2023/09/18 01:21:28;;;;;;;194.73;10.55;;;;;;;23.33;58.50;99125.94;7288812;19;130151;-38
2023/09/18 01:23:54;;;;;;;206.60;12.03;;;;;;;23.33;58.83;99125.13;7289495;19;130930;-36
2023/09/18 01:26:19;;;;;;;183.80;10.67;;;;;;;23.35;59.36;99124.00;7290061;19;131076;-36
2023/09/18 01:28:45;;;;;;;165.60;9.70;;;;;;;23.35;59.84;99121.38;7288876;19;130672;-38
2023/09/18 01:31:10;;;;;;;184.17;10.47;;;;;;;23.35;58.90;99113.50;7289060;19;129459;-36
2023/09/18 01:33:37;;;;;;;150.23;8.80;;;;;;;23.36;59.87;99109.88;7291006;19;130768;-36
2023/09/18 01:36:03;;;;;;;;;;;;;;;23.40;59.98;99116.47;7292180;19;131110;-36
2023/09/18 01:38:28;;;;;;;220.23;12.23;;;;;;;23.35;59.07;99115.28;7290194;19;131180;-38
2023/09/18 01:40:54;;;;;;;177.50;10.30;;;;;;;23.33;59.00;99120.69;7287957;19;130179;-35
2023/09/18 01:43:20;;;;;;;159.13;9.70;;;;;;;23.36;59.62;99103.81;7292266;19;130250;-40
2023/09/18 01:45:46;;;;;;;211.43;12.23;;;;;;;23.35;59.94;99097.75;7288747;19;131281;-39
2023/09/18 01:48:11;;;;;;;206.70;11.97;;;;;;;23.35;58.89;99097.75;7288986;19;130658;-40
2023/09/18 01:50:37;;;;;;;168.07;9.80;;;;;;;23.33;59.05;99089.22;7286917;19;130914;-38
2023/09/18 01:53:03;;;;;;;169.68;9.90;;;;;;;23.36;59.28;99086.28;7289876;19;130112;-39
2023/09/18 01:55:29;;;;;;;171.20;10.03;;;;;;;23.34;59.62;99080.34;7291442;19;130927;-35
2023/09/18 01:57:55;;;;;;;236.63;13.43;;;;;;;23.32;60.31;99081.53;7287582;19;130111;-36
2023/09/18 02:00:21;;;;;;;139.70;8.40;;;;;;;23.31;59.65;99088.56;7289840;19;130039;-35
2023/09/18 02:02:46;;;;;;;139.37;8.73;;;;;;;23.33;58.96;99089.22;7289416;19;131246;-37
2023/09/18 02:05:12;;;;;;;207.03;12.53;;;;;;;23.34;59.47;99090.84;7289066;19;129345;-38
2023/09/18 02:07:37;;;;;;;198.07;10.83;;;;;;;23.33;59.78;99088.41;7288169;19;133269;-35
2023/09/18 02:10:03;;;;;;;203.10;11.45;;;;;;;23.23;59.16;99065.75;7289465;19;130904;-35
2023/09/18 02:12:28;;;;;;;155.57;9.13;;;;;;;23.35;60.02;99081.19;7287037;19;132518;-37
2023/09/18 02:14:57;;;;;;;177.67;10.13;;;;;;;23.34;59.51;99082.97;7291140;19;130387;-39
2023/09/18 02:17:22;;;;;;;174.93;10.32;;;;;;;23.35;59.06;99074.16;7292393;19;130419;-36
2023/09/18 02:19:48;;;;;;;144.50;8.63;;;;;;;23.39;59.24;99077.28;7284626;19;131993;-35
2023/09/18 02:22:13;;;;;;;160.10;9.63;;;;;;;23.38;59.86;99084.31;7288479;19;130497;-38
2023/09/18 02:24:38;;;;;;;187.17;10.77;;;;;;;23.39;59.22;99078.06;7289148;19;130739;-39
2023/09/18 02:27:05;;;;;;;183.97;10.77;;;;;;;23.39;59.63;99072.81;7286581;19;129389;-38
2023/09/18 02:29:30;;;;;;;;;;;;;;;23.43;60.93;99057.56;7291456;19;130974;-39
2023/09/18 02:31:55;;;;;;;156.07;9.57;;;;;;;23.38;59.81;99062.50;7289341;19;130748;-38
2023/09/18 02:34:21;;;;;;;301.67;16.90;;;;;;;23.38;59.10;99062.50;7287426;19;131667;-38
2023/09/18 02:36:47;;;;;;;186.67;11.07;;;;;;;23.38;59.53;99055.44;7287532;19;129735;-37
2023/09/18 02:39:12;;;;;;;145.65;9.05;;;;;;;23.39;59.86;99056.28;7288892;19;130887;-39
2023/09/18 02:41:38;;;;;;;143.90;9.10;;;;;;;23.37;58.60;99060.88;7291477;19;132023;-37
2023/09/18 02:44:04;;;;;;;183.97;10.57;;;;;;;23.37;59.63;99051.16;7289289;19;132032;-39
2023/09/18 02:46:29;;;;;;;166.50;9.82;;;;;;;23.38;59.81;99050.22;7287524;19;129876;-35
2023/09/18 02:48:55;;;;;;;175.07;10.67;;;;;;;23.40;58.68;99043.00;7284505;19;129323;-38
2023/09/18 02:51:20;;;;;;;157.60;9.67;;;;;;;23.39;59.33;99038.72;7286131;19;129660;-39
2023/09/18 02:53:45;;;;;;;201.27;11.60;;;;;;;23.38;58.90;99039.72;7288703;19;130267;-40
2023/09/18 02:56:11;;;;;;;157.90;10.23;;;;;;;23.36;59.12;99039.06;7288053;19;129871;-39
2023/09/18 02:58:36;;;;;;;122.10;8.50;;;;;;;23.36;59.42;99030.34;7285444;19;130176;-36
2023/09/18 03:01:03;;;;;;;181.83;10.60;;;;;;;23.37;59.93;99032.81;7286046;19;131252;-38
2023/09/18 03:03:29;;;;;;;196.50;10.85;;;;;;;23.36;59.92;99025.94;7289613;19;131000;-37
2023/09/18 03:06:02;;;;;;;157.20;9.77;;;;;;;23.35;60.85;99024.31;7287373;19;130683;-37
2023/09/18 03:08:27;;;;;;;174.00;10.88;;;;;;;23.37;58.77;99024.94;7284992;19;129860;-39
2023/09/18 03:10:52;;;;;;;196.53;11.50;;;;;;;23.38;59.12;99031.84;7284528;19;130636;-40
2023/09/18 03:13:18;;;;;;;203.70;11.60;;;;;;;23.38;58.99;99029.22;7288981;19;131201;-38
2023/09/18 03:15:49;;;;;;;171.97;10.27;;;;;;;23.38;60.57;99034.47;7288073;19;129448;-36
2023/09/18 03:18:15;;;;;;;170.85;10.40;;;;;;;23.39;58.88;99046.59;7288143;19;129893;-37
2023/09/18 03:20:40;;;;;;;179.30;10.67;;;;;;;23.39;58.70;99038.72;7283120;19;130753;-36
2023/09/18 03:23:06;;;;;;;205.63;11.80;;;;;;;23.39;59.19;99036.09;7288099;19;130603;-38
2023/09/18 03:25:31;;;;;;;150.63;9.47;;;;;;;23.35;59.89;99036.59;7289376;19;130606;-38
2023/09/18 03:27:57;;;;;;;162.53;10.03;;;;;;;23.25;59.64;99015.75;7286024;19;130966;-39
2023/09/18 03:30:23;;;;;;;160.45;9.95;;;;;;;23.36;59.56;99031.19;7285613;19;130189;-38
2023/09/18 03:32:50;;;;;;;203.88;12.13;;;;;;;23.37;59.99;99029.38;7287063;19;133415;-37
2023/09/18 03:35:20;;;;;;;155.57;9.35;;;;;;;23.36;59.42;99014.63;7286506;19;131362;-39
2023/09/18 03:37:53;;;;;;;149.20;8.93;;;;;;;23.37;59.65;99014.44;7284784;19;129936;-37
2023/09/18 03:40:20;;;;;;;166.35;9.98;;;;;;;23.36;59.03;99002.31;7284385;19;132109;-38
2023/09/18 03:42:46;;;;;;;200.27;11.45;;;;;;;23.35;60.19;98992.84;7283143;19;132541;-38
2023/09/18 03:45:12;;;;;;;231.18;12.80;;;;;;;23.37;59.88;98998.72;7286759;19;129832;-39
2023/09/18 03:47:40;;;;;;;149.57;9.38;;;;;;;23.28;59.63;98981.34;7285676;19;129938;-38
2023/09/18 03:50:06;;;;;;;190.68;11.38;;;;;;;23.35;60.11;98990.22;7283762;19;130518;-36
2023/09/18 03:52:32;;;;;;;181.20;10.50;;;;;;;23.38;59.74;98992.50;7285529;19;130556;-35
2023/09/18 03:54:57;;;;;;;191.27;10.93;;;;;;;23.36;59.26;98994.47;7286928;19;131240;-34
2023/09/18 03:57:23;;;;;;;136.50;8.87;;;;;;;23.32;59.63;98981.84;7286869;19;131131;-39
2023/09/18 03:59:49;;;;;;;166.23;10.23;;;;;;;23.38;60.15;98997.75;7282385;19;130780;-39
2023/09/18 04:02:14;;;;;;;245.70;13.53;;;;;;;23.35;59.77;98986.75;7284775;19;129754;-38
2023/09/18 04:04:39;;;;;;;177.10;10.33;;;;;;;23.39;58.89;98986.25;7284110;19;129560;-37
2023/09/18 04:07:08;;;;;;;166.40;10.17;;;;;;;23.38;59.41;98992.50;7283112;19;130346;-38
2023/09/18 04:09:34;;;;;;;154.52;9.50;;;;;;;23.38;59.32;98987.25;7279678;19;132191;-40
2023/09/18 04:12:05;;;;;;;193.35;11.30;;;;;;;23.37;59.76;98990.84;7285772;19;131203;-36
2023/09/18 04:14:30;;;;;;;150.95;9.40;;;;;;;23.39;59.42;98982.84;7284436;19;130256;-37
2023/09/18 04:16:55;;;;;;;176.00;10.47;;;;;;;23.30;58.99;98965.44;7284341;19;129741;-36
2023/09/18 04:19:21;;;;;;;136.90;8.83;;;;;;;23.38;60.03;98982.00;7279124;19;130503;-36
2023/09/18 04:21:47;;;;;;;195.43;11.23;;;;;;;23.26;59.29;98951.81;7282429;19;130204;-35
2023/09/18 04:24:13;;;;;;;177.18;10.90;;;;;;;23.37;60.13;98969.84;7285746;19;131030;-35
2023/09/18 04:26:39;;;;;;;201.13;12.27;;;;;;;23.40;59.25;98961.69;7283865;19;130441;-37
2023/09/18 04:29:05;;;;;;;159.30;9.90;;;;;;;23.40;59.09;98961.69;7280227;19;130125;-38
2023/09/18 04:31:31;;;;;;;206.90;11.77;;;;;;;23.30;59.33;98947.91;7282711;19;130832;-37
2023/09/18 04:33:56;;;;;;;155.60;9.47;;;;;;;23.40;59.10;98966.91;7286143;19;130948;-36
2023/09/18 04:36:21;;;;;;;151.30;9.53;;;;;;;23.40;59.52;98960.84;7285439;19;129755;-35
2023/09/18 04:38:47;;;;;;;169.47;10.33;;;;;;;23.41;58.84;98965.91;7284510;19;130479;-39
2023/09/18 04:41:14;;;;;;;233.97;13.07;;;;;;;23.40;58.81;98959.06;7282938;19;131178;-38
2023/09/18 04:43:40;;;;;;;243.10;14.07;;;;;;;23.38;59.57;98949.69;7283847;19;129292;-37
2023/09/18 04:46:05;;;;;;;190.30;11.53;;;;;;;23.36;59.44;98949.88;7282239;19;129681;-38
2023/09/18 04:48:31;;;;;;;168.30;10.73;;;;;;;23.36;59.51;98952.47;7281108;19;130167;-36
2023/09/18 04:51:00;;;;;;;184.57;10.60;;;;;;;23.26;60.36;98930.81;7287667;19;131027;-35
2023/09/18 04:53:30;;;;;;;156.07;9.43;;;;;;;23.37;59.37;98943.63;7291795;19;130373;-35
2023/09/18 04:55:55;;;;;;;167.77;9.93;;;;;;;23.36;58.96;98938.53;7290273;19;130440;-36
2023/09/18 04:58:21;;;;;;;165.93;10.10;;;;;;;23.39;59.25;98940.84;7290640;19;131014;-36
2023/09/18 05:00:53;;;;;;;197.97;10.87;;;;;;;23.40;59.05;98943.31;7288918;19;132296;-36
2023/09/18 05:03:18;;;;;;;156.35;9.55;;;;;;;23.39;59.99;98944.28;7289567;19;129787;-37
2023/09/18 05:05:44;;;;;;;155.13;9.50;;;;;;;23.26;60.24;98915.09;7292066;19;130365;-37
2023/09/18 05:08:09;;;;;;;180.63;10.93;;;;;;;23.37;60.10;98933.13;7286875;19;129947;-37
2023/09/18 05:10:35;;;;;;;232.97;13.23;;;;;;;23.27;59.10;98911.50;7283492;19;131631;-37
2023/09/18 05:13:00;;;;;;;172.07;10.27;;;;;;;23.37;59.44;98927.88;7291194;19;130720;-37
2023/09/18 05:15:26;;;;;;;214.83;12.50;;;;;;;23.38;59.93;98924.28;7288002;19;129455;-38
2023/09/18 05:17:55;;;;;;;153.10;9.53;;;;;;;23.38;58.98;98921.66;7290442;19;130305;-36
2023/09/18 05:20:24;;;;;;;187.25;10.85;;;;;;;23.40;59.88;98932.00;7288106;19;131224;-37
2023/09/18 05:22:52;;;;;;;183.88;11.18;;;;;;;23.40;59.65;98927.56;7290989;19;129817;-38
2023/09/18 05:25:17;;;;;;;183.15;11.27;;;;;;;23.37;60.48;98922.63;7290349;19;131256;-36
2023/09/18 05:27:47;;;;;;;153.47;9.77;;;;;;;23.38;59.92;98913.78;7289757;19;130955;-39
2023/09/18 05:30:15;;;;;;;218.45;12.65;;;;;;;23.32;59.17;98909.19;7288311;19;131487;-37
2023/09/18 05:32:41;;;;;;;188.30;11.40;;;;;;;23.41;59.32;98918.69;7289552;19;129449;-37
2023/09/18 05:35:09;;;;;;;230.75;13.43;;;;;;;23.41;59.01;98918.69;7289047;19;130635;-39
2023/09/18 05:37:36;;;;;;;175.55;10.88;;;;;;;23.37;59.88;98914.75;7287093;19;130530;-36
2023/09/18 05:40:04;;;;;;;176.05;9.70;;;;;;;23.33;59.37;98910.03;7286097;19;132454;-36
2023/09/18 05:42:30;;;;;;;190.82;11.07;;;;;;;23.17;59.49;98889.88;7291780;19;130773;-37
2023/09/18 05:44:56;;;;;;;147.67;8.77;;;;;;;23.32;58.60;98909.19;7291021;19;129365;-38
2023/09/18 05:47:22;;;;;;;171.07;10.53;;;;;;;23.33;59.34;98916.09;7285927;19;129773;-36
2023/09/18 05:49:48;;;;;;;192.43;11.43;;;;;;;23.30;59.76;98916.44;7285921;19;132892;-40
2023/09/18 05:52:13;;;;;;;178.10;10.40;;;;;;;23.33;59.15;98923.97;7290777;19;130387;-38
2023/09/18 05:54:38;;;;;;;169.17;10.53;;;;;;;23.35;59.26;98914.13;7291114;19;129220;-38
2023/09/18 05:57:04;;;;;;;153.40;9.33;;;;;;;23.31;58.83;98914.63;7290563;19;130505;-37
2023/09/18 05:59:29;;;;;;;231.03;12.60;;;;;;;23.29;59.57;98909.53;7287757;19;130717;-38
2023/09/18 06:01:54;;;;;;;157.40;9.80;;;;;;;23.31;59.52;98898.88;7289412;19;130154;-38
2023/09/18 06:04:20;;;;;;;193.77;11.27;;;;;;;23.33;59.01;98905.59;7290703;19;129167;-38
2023/09/18 06:06:46;;;;;;;178.33;10.50;;;;;;;23.21;58.68;98878.06;7288575;19;131483;-37
2023/09/18 06:09:11;;;;;;;206.63;11.93;;;;;;;23.32;59.13;98892.66;7287147;19;131897;-36
2023/09/18 06:11:37;;;;;;;165.43;10.77;;;;;;;23.32;59.12;98896.09;7289885;19;130160;-37
2023/09/18 06:14:02;;;;;;;160.93;10.10;;;;;;;23.32;59.22;98890.84;7290692;19;130027;-39
2023/09/18 06:16:27;;;;;;;156.60;9.80;;;;;;;23.33;59.71;98881.19;7289469;19;130530;-39
2023/09/18 06:18:55;;;;;;;197.60;11.33;;;;;;;23.33;58.66;98878.56;7289698;19;130531;-37
2023/09/18 06:21:21;;;;;;;214.85;12.50;;;;;;;23.31;58.51;98876.09;7285369;19;130236;-36
2023/09/18 06:23:46;;;;;;;150.40;9.73;;;;;;;23.28;59.93;98865.94;7289980;19;130662;-40
2023/09/18 06:26:12;;;;;;;175.33;11.17;;;;;;;23.28;58.37;98865.94;7287849;19;129587;-39
2023/09/18 06:28:38;;;;;;;157.77;10.37;;;;;;;23.26;58.80;98862.63;7289173;19;130217;-37
2023/09/18 06:31:03;;;;;;;153.25;9.32;;;;;;;23.27;59.28;98864.28;7289082;19;130596;-38
2023/09/18 06:33:29;;;;;;;170.53;10.97;;;;;;;23.27;59.31;98863.50;7288128;19;130429;-39
2023/09/18 06:35:54;;;;;;;212.43;12.80;;;;;;;23.29;59.19;98861.53;7288377;19;129996;-39
2023/09/18 06:38:20;;;;;;;206.93;12.17;;;;;;;23.26;58.74;98857.38;7288366;19;133401;-36
2023/09/18 06:40:46;;;;;;;140.07;9.53;;;;;;;23.27;59.88;98868.75;7288725;19;130786;-37
2023/09/18 06:43:11;;;;;;;148.10;9.48;;;;;;;23.25;59.27;98850.53;7286057;19;130972;-37
2023/09/18 06:45:37;;;;;;;221.53;12.53;;;;;;;23.30;59.19;98845.63;7287452;19;129628;-40
2023/09/18 06:48:04;;;;;;;172.13;10.48;;;;;;;23.27;59.15;98851.19;7288803;19;130669;-35
2023/09/18 06:50:30;;;;;;;183.68;11.43;;;;;;;23.26;59.32;98846.91;7286956;19;129541;-35
2023/09/18 06:52:55;;;;;;;165.57;10.30;;;;;;;23.27;59.23;98835.44;7284634;19;129798;-37
2023/09/18 06:55:21;;;;;;;219.27;12.87;;;;;;;23.29;58.93;98835.31;7287452;19;130864;-37
2023/09/18 06:57:48;;;;;;;156.97;9.93;;;;;;;23.32;58.87;98825.25;7286867;19;130425;-37
2023/09/18 07:00:20;;;;;;;189.10;11.70;;;;;;;23.35;59.47;98826.75;7283967;19;131389;-35
2023/09/18 07:02:46;;;;;;;162.52;10.20;;;;;;;23.25;59.31;98808.56;7286016;19;130653;-35
2023/09/18 07:05:12;;;;;;;178.97;11.33;;;;;;;23.36;59.01;98826.56;7285699;19;129732;-37
2023/09/18 07:07:37;;;;;;;158.47;9.77;;;;;;;23.38;59.17;98821.16;7286992;19;130743;-37
2023/09/18 07:10:03;;;;;;;165.87;10.80;;;;;;;23.39;59.57;98820.97;7284734;19;131636;-38
2023/09/18 07:12:28;;;;;;;170.67;10.47;;;;;;;23.31;58.07;98817.56;7284034;19;130740;-38
2023/09/18 07:14:54;;;;;;;266.60;14.97;;;;;;;23.32;59.16;98814.78;7284732;19;130091;-37
2023/09/18 07:17:19;;;;;;;191.73;12.23;;;;;;;23.35;58.71;98813.63;7286463;19;131814;-35
2023/09/18 07:19:44;;;;;;;139.53;9.30;;;;;;;23.37;59.03;98809.84;7286668;19;129780;-35
2023/09/18 07:22:09;;;;;;;154.30;9.70;;;;;;;23.36;59.77;98805.59;7286960;19;130795;-39
2023/09/18 07:24:35;;;;;;;203.67;12.27;;;;;;;23.38;59.09;98805.41;7288004;19;130962;-37
2023/09/18 07:27:00;;;;;;;162.97;10.63;;;;;;;23.39;59.31;98809.69;7288520;19;131613;-36
2023/09/18 07:29:26;;;;;;;136.93;9.07;;;;;;;23.42;58.99;98815.38;7284306;19;130027;-35
2023/09/18 07:31:51;;;;;;;138.07;9.27;;;;;;;23.42;59.22;98804.91;7288583;19;130882;-39
2023/09/18 07:34:17;;;;;;;199.93;12.30;;;;;;;23.40;59.41;98796.41;7287397;19;129809;-36
2023/09/18 07:36:44;;;;;;;143.63;9.80;;;;;;;23.39;59.43;98802.63;7287045;19;130893;-39
2023/09/18 07:39:11;;;;;;;222.00;13.73;;;;;;;23.40;59.63;98796.41;7285302;19;131084;-35
2023/09/18 07:41:37;;;;;;;172.23;10.75;;;;;;;23.42;58.91;98791.78;7283254;19;131911;-35
2023/09/18 07:44:02;;;;;;;206.13;12.00;;;;;;;23.42;59.29;98783.91;7287215;19;130596;-38
2023/09/18 07:46:27;;;;;;;154.93;9.90;;;;;;;23.42;59.28;98788.38;7284451;19;131052;-37
2023/09/18 07:48:53;;;;;;;142.73;9.47;;;;;;;23.41;59.20;98787.53;7286051;19;129969;-36
2023/09/18 07:51:18;;;;;;;199.97;12.43;;;;;;;23.40;59.42;98778.03;7283433;19;131004;-35
2023/09/18 07:53:44;;;;;;;194.53;12.00;;;;;;;23.38;59.61;98768.69;7287773;19;130346;-38
2023/09/18 07:56:09;;;;;;;172.23;11.07;;;;;;;23.42;59.07;98775.25;7285988;19;130251;-35
2023/09/18 07:58:38;;;;;;;184.73;12.00;;;;;;;23.34;59.07;98759.56;7285448;19;129654;-39
2023/09/18 08:01:05;;;;;;;166.70;10.45;;;;;;;23.41;59.31;98774.41;7284611;19;130227;-35
2023/09/18 08:03:30;;;;;;;;;;;;;;;23.45;60.22;98764.41;7286426;19;132308;-35
2023/09/18 08:05:56;;;;;;;120.13;8.48;;;;;;;23.41;59.92;98776.22;7287183;19;130692;-35
2023/09/18 08:08:23;;;;;;;157.80;10.57;;;;;;;23.41;59.79;98777.03;7285124;19;130523;-36
2023/09/18 08:10:49;;;;;;;198.07;11.65;;;;;;;23.41;58.80;98777.03;7284670;19;130871;-38
2023/09/18 08:13:14;;;;;;;178.53;11.07;;;;;;;23.41;59.37;98763.09;7286863;19;131354;-37
2023/09/18 08:15:39;;;;;;;171.03;11.00;;;;;;;23.42;59.48;98762.94;7284738;19;130222;-36
2023/09/18 08:18:05;;;;;;;173.67;10.73;;;;;;;23.41;59.90;98758.69;7285468;19;131157;-38
2023/09/18 08:20:30;;;;;;;224.20;12.87;;;;;;;23.39;59.07;98760.66;7284191;19;129925;-37
2023/09/18 08:22:56;;;;;;;132.60;8.47;;;;;;;23.42;59.79;98767.38;7287552;19;131335;-38
2023/09/18 08:25:21;;;;;;;213.37;12.73;;;;;;;23.42;59.56;98767.38;7286339;19;130756;-36
2023/09/18 08:27:48;;;;;;;154.17;10.47;;;;;;;23.43;59.90;98764.59;7286178;19;129372;-39
2023/09/18 08:30:14;;;;;;;195.88;11.40;;;;;;;23.43;60.06;98772.44;7282893;19;129395;-36
2023/09/18 08:32:40;;;;;;;166.75;10.93;;;;;;;23.36;59.22;98757.56;7287030;19;130697;-38
2023/09/18 08:35:08;;;;;;;155.27;10.30;;;;;;;23.45;59.74;98773.09;7287886;19;129945;-36
2023/09/18 08:37:34;;;;;;;165.18;10.70;;;;;;;23.47;59.19;98765.84;7279275;19;130989;-35
2023/09/18 08:40:09;;;;;;;205.97;12.27;;;;;;;23.41;59.49;98765.72;7282898;19;131702;-36
2023/09/18 08:42:36;;;;;;;207.00;13.27;;;;;;;23.33;59.14;98757.91;7283781;19;131970;-35
2023/09/18 08:45:06;;;;;;;178.73;11.13;;;;;;;23.31;59.35;98760.69;7281607;19;132411;-36
2023/09/18 08:47:31;;;;;;;178.65;11.23;;;;;;;23.29;59.94;98757.41;7282873;19;130244;-35
2023/09/18 08:49:59;;;;;;;178.70;11.30;;;;;;;23.34;59.62;98749.06;7285256;19;129491;-35
2023/09/18 08:52:25;;;;;;;199.68;12.48;;;;;;;23.36;59.10;98753.13;7280940;19;130008;-37
2023/09/18 08:54:51;;;;;;;;;;;;;;;23.42;60.69;98747.19;7281414;19;130379;-36
2023/09/18 08:57:17;;;;;;;179.35;11.40;;;;;;;23.41;60.29;98739.50;7277359;19;130212;-37
2023/09/18 08:59:43;;;;;;;222.67;13.23;;;;;;;23.38;59.87;98724.94;7278408;19;131282;-38
2023/09/18 09:02:11;;;;;;;186.45;11.27;;;;;;;23.34;59.58;98723.63;7285791;19;130407;-35
2023/09/18 09:04:37;;;;;;;162.55;10.38;;;;;;;23.32;59.92;98730.03;7283517;19;131922;-35
2023/09/18 09:07:03;;;;;;;166.70;10.45;;;;;;;23.34;59.52;98723.63;7280506;19;130014;-36
2023/09/18 09:09:30;;;;;;;231.80;13.93;;;;;;;23.34;59.14;98733.31;7280072;19;131262;-39
2023/09/18 09:11:56;;;;;;;159.10;10.20;;;;;;;23.37;59.99;98725.91;7282174;19;132221;-38
2023/09/18 09:14:27;;;;;;;175.60;11.17;;;;;;;23.39;59.44;98715.25;7282709;19;131374;-37
2023/09/18 09:16:53;;;;;;;162.43;10.48;;;;;;;23.38;59.49;98714.44;7282802;19;131895;-36
2023/09/18 09:19:29;;;;;;;155.67;10.03;;;;;;;23.41;60.94;98719.34;7281009;19;130878;-38
2023/09/18 09:21:55;;;;;;;216.63;12.23;;;;;;;23.41;60.04;98703.59;7284493;19;130524;-35
2023/09/18 09:24:41;;;;;;;156.73;10.03;;;;;;;23.43;61.21;98712.13;7285184;19;132444;-35
2023/09/18 09:27:08;;;;;;;143.35;9.52;;;;;;;23.41;58.65;98715.88;7285639;19;130783;-35
2023/09/18 09:29:34;;;;;;;174.20;10.60;;;;;;;23.34;59.93;98705.25;7281641;19;131555;-38
2023/09/18 09:32:17;;;;;;;150.30;9.57;;;;;;;23.44;61.05;98718.16;7283296;19;130619;-35
2023/09/18 09:34:43;;;;;;;174.68;10.52;;;;;;;23.44;58.89;98711.09;7280684;19;129900;-38
2023/09/18 09:37:10;;;;;;;207.68;11.98;;;;;;;23.45;59.39;98704.91;7288665;19;129748;-37
2023/09/18 09:39:54;;;;;;;157.88;10.60;;;;;;;23.48;60.74;98708.97;7291504;19;130461;-35
2023/09/18 09:42:24;;;;;;;171.15;10.75;;;;;;;23.47;59.49;98717.84;7287707;19;130383;-35
2023/09/18 09:45:03;;;;;;;148.90;9.45;;;;;;;23.48;60.99;98716.84;7290661;19;131875;-34
2023/09/18 09:47:33;;;;;;;185.32;11.45;;;;;;;23.45;60.48;98704.91;7286042;19;130393;-38
2023/09/18 09:49:58;;;;;;;179.73;10.63;;;;;;;23.46;59.71;98701.28;7287070;19;130028;-38
2023/09/18 09:52:24;;;;;;;253.30;14.50;;;;;;;23.46;59.82;98698.66;7286844;19;130878;-36
2023/09/18 09:54:49;;;;;;;150.70;9.53;;;;;;;23.45;59.70;98698.81;7292057;19;130203;-38
2023/09/18 09:57:14;;;;;;;189.37;11.70;;;;;;;23.46;59.00;98701.28;7288393;19;130796;-35
2023/09/18 09:59:44;;;;;;;188.93;11.63;;;;;;;23.40;58.90;98701.97;7291263;19;131152;-40
2023/09/18 10:02:14;;;;;;;125.53;8.82;;;;;;;23.42;59.79;98714.91;7300100;19;131445;-37
2023/09/18 10:04:40;;;;;;;173.57;11.10;;;;;;;23.43;59.11;98719.97;7299894;19;132510;-38
2023/09/18 10:07:08;;;;;;;136.60;9.23;;;;;;;23.44;60.28;98726.84;7299083;19;130040;-40
2023/09/18 10:09:41;;;;;;;134.18;9.15;;;;;;;23.44;60.84;98718.97;7295542;19;130389;-40
2023/09/18 10:12:11;;;;;;;172.68;10.52;;;;;;;23.43;60.80;98729.66;7300199;19;130074;-40
2023/09/18 10:14:38;;;;;;;138.07;9.20;;;;;;;23.45;59.10;98728.50;7300403;19;129635;-38
2023/09/18 10:17:17;;;;;;;88.40;7.07;;;;;;;23.45;60.65;98733.75;7301091;19;130046;-38
2023/09/18 10:19:46;;;;;;;116.25;8.50;;;;;;;23.49;58.89;98732.41;7293167;19;131022;-39
2023/09/18 10:22:32;;;;;;;111.30;8.27;;;;;;;23.37;60.56;98707.53;7299089;19;129456;-40
2023/09/18 10:25:17;;;;;;;148.77;9.70;;;;;;;23.48;60.27;98720.28;7297959;19;131200;-35
2023/09/18 10:27:46;;;;;;;116.68;8.05;;;;;;;23.49;59.74;98716.66;7300173;19;129242;-40
2023/09/18 10:30:12;;;;;;;189.00;11.32;;;;;;;23.48;59.82;98704.53;7296238;19;129806;-37
2023/09/18 10:32:40;;;;;;;146.10;9.37;;;;;;;23.48;59.71;98707.16;7299442;19;130018;-40
2023/09/18 10:35:12;;;;;;;99.15;7.38;;;;;;;23.48;59.35;98707.16;7298477;19;129114;-39
2023/09/18 10:37:38;;;;;;;143.45;9.52;;;;;;;23.47;59.18;98699.47;7298566;19;130057;-38
2023/09/18 10:40:07;;;;;;;177.30;11.32;;;;;;;23.47;59.53;98702.09;7297060;19;129164;-37
2023/09/18 10:42:35;;;;;;;140.50;9.43;;;;;;;23.47;58.73;98697.66;7299766;19;131521;-39
2023/09/18 10:45:04;;;;;;;89.95;7.00;;;;;;;23.47;59.02;98697.66;7298780;19;130470;-40
2023/09/18 10:47:30;;;;;;;136.13;9.25;;;;;;;23.48;58.54;98698.47;7298364;19;130487;-37
2023/09/18 10:49:56;;;;;;;128.30;8.43;;;;;;;23.50;58.12;98692.06;7294965;19;129226;-40
2023/09/18 10:52:21;;;;;;;150.57;9.50;;;;;;;23.49;58.51;98702.72;7299600;19;130277;-38
2023/09/18 10:54:47;;;;;;;88.00;6.93;;;;;;;23.48;58.51;98699.28;7297197;19;129345;-35
2023/09/18 10:57:13;;;;;;;104.30;7.40;;;;;;;23.52;58.39;98694.53;7296293;19;129695;-38
2023/09/18 10:59:45;;;;;;;167.40;10.23;;;;;;;23.50;59.63;98694.69;7299580;19;131316;-39
2023/09/18 11:02:14;;;;;;;140.77;8.93;;;;;;;23.51;58.65;98692.88;7299068;19;130196;-37
2023/09/18 11:04:41;;;;;;;101.05;7.30;;;;;;;23.49;58.43;98694.84;7296651;19;131089;-39